Time;durP1;ratioP1;P1;durP2;ratioP2;P2;SDS_P1;SDS_P2;PMS_P1;PMS_P2;Temp;Humidity;BMP_temperature;BMP_pressure;BME280_temperature;BME280_humidity;BME280_pressure;Samples;Min_cycle;Max_cycle;Signal;HPM_P1;HPM_P2
2022/10/22 00:00:29;;;;;;;1999.90;999.90;;;14.90;99.90;;;;;;5031580;28;20033;-86
2022/10/22 00:02:55;;;;;;;1999.90;999.90;;;14.90;99.90;;;;;;5013907;28;20026;-86
2022/10/22 00:05:20;;;;;;;1999.90;999.90;;;14.90;99.90;;;;;;5031433;28;20167;-85
2022/10/22 00:07:46;;;;;;;1999.90;999.90;;;14.90;99.90;;;;;;5031377;28;20021;-86
2022/10/22 00:10:12;;;;;;;1999.90;999.90;;;15.00;99.90;;;;;;5031198;28;20033;-86
2022/10/22 00:12:37;;;;;;;1999.90;999.90;;;15.00;99.90;;;;;;5030819;28;20033;-86
2022/10/22 00:15:04;;;;;;;1999.90;999.90;;;15.10;99.90;;;;;;5031425;28;20071;-86
2022/10/22 00:17:30;;;;;;;1999.90;999.90;;;15.10;99.90;;;;;;5031211;28;20040;-86
2022/10/22 00:19:56;;;;;;;1999.90;999.90;;;15.10;99.90;;;;;;5031125;28;20033;-86
2022/10/22 00:22:21;;;;;;;1999.90;999.90;;;15.10;99.90;;;;;;5012862;28;20025;-86
2022/10/22 00:24:47;;;;;;;1999.90;999.90;;;15.20;99.90;;;;;;5030904;28;20033;-86
2022/10/22 00:27:13;;;;;;;1999.90;999.90;;;15.20;99.90;;;;;;5013249;28;20017;-86
2022/10/22 00:29:38;;;;;;;1999.90;999.90;;;15.10;99.90;;;;;;5031204;28;20152;-86
2022/10/22 00:32:05;;;;;;;1999.90;999.90;;;15.10;99.90;;;;;;5034864;28;20049;-86
2022/10/22 00:34:31;;;;;;;1999.90;999.90;;;15.10;99.90;;;;;;5033204;28;20104;-85
2022/10/22 00:36:56;;;;;;;1999.90;999.90;;;15.20;99.90;;;;;;5034494;28;20087;-86
2022/10/22 00:39:24;;;;;;;1999.90;999.90;;;15.20;99.90;;;;;;5034660;28;20396;-85
2022/10/22 00:41:52;;;;;;;1999.90;999.90;;;15.20;99.90;;;;;;5032821;28;20484;-85
2022/10/22 00:44:55;;;;;;;1999.90;999.90;;;15.20;99.90;;;;;;5034373;28;20081;-85
2022/10/22 00:47:24;;;;;;;1999.90;999.90;;;15.10;99.90;;;;;;5016662;28;20033;-86
2022/10/22 00:49:52;;;;;;;1999.90;999.90;;;15.10;99.90;;;;;;5023540;28;20025;-85
2022/10/22 00:52:18;;;;;;;1999.90;999.90;;;15.10;99.90;;;;;;5014237;28;20046;-85
2022/10/22 00:54:44;;;;;;;1999.90;999.90;;;15.00;99.90;;;;;;5021023;28;20038;-86
2022/10/22 00:57:10;;;;;;;1999.90;999.90;;;15.00;99.90;;;;;;5016360;28;20439;-85
2022/10/22 00:59:36;;;;;;;1999.90;999.90;;;15.10;99.90;;;;;;5034408;28;20036;-86
2022/10/22 01:02:03;;;;;;;1999.90;999.90;;;15.10;99.90;;;;;;5034278;28;20519;-85
2022/10/22 01:04:28;;;;;;;1999.90;999.90;;;15.10;99.90;;;;;;5034072;28;20042;-86
2022/10/22 01:06:54;;;;;;;1999.90;999.90;;;15.10;99.90;;;;;;5016259;28;20037;-86
2022/10/22 01:09:37;;;;;;;1999.90;999.90;;;15.10;99.90;;;;;;5016443;28;20028;-85
2022/10/22 01:12:30;;;;;;;1999.90;999.90;;;15.10;99.90;;;;;;5033893;28;20492;-85
2022/10/22 01:15:13;;;;;;;1999.90;999.90;;;15.10;99.90;;;;;;5034112;28;20037;-86
2022/10/22 01:17:42;;;;;;;;;;;15.10;99.90;;;;;;5034540;28;20029;-86
2022/10/22 01:20:19;;;;;;;1999.90;999.90;;;15.10;99.90;;;;;;5033918;28;19956;-85
2022/10/22 01:23:07;;;;;;;1999.90;999.90;;;15.10;99.90;;;;;;5033347;28;20025;-85
2022/10/22 01:25:35;;;;;;;1999.90;999.90;;;15.20;99.90;;;;;;5033431;28;20049;-85
2022/10/22 01:28:37;;;;;;;1999.90;999.90;;;15.20;99.90;;;;;;5033876;28;20100;-85
2022/10/22 01:31:04;;;;;;;1999.90;999.90;;;15.20;99.90;;;;;;5033500;28;20586;-85
2022/10/22 01:33:31;;;;;;;1999.90;999.90;;;15.20;99.90;;;;;;5033736;28;20500;-85
2022/10/22 01:35:58;;;;;;;1999.90;999.90;;;15.20;99.90;;;;;;5032827;28;20028;-85
2022/10/22 01:38:25;;;;;;;1999.90;999.90;;;15.20;99.90;;;;;;5033011;28;20025;-85
2022/10/22 01:40:51;;;;;;;1999.90;999.90;;;15.20;99.90;;;;;;5032559;28;20034;-85
2022/10/22 01:43:17;;;;;;;1999.90;999.90;;;15.20;99.90;;;;;;5033269;28;20079;-85
2022/10/22 01:45:52;;;;;;;1999.90;999.90;;;15.10;99.90;;;;;;5015634;28;20041;-85
2022/10/22 01:48:37;;;;;;;1999.90;999.90;;;15.20;99.90;;;;;;5033304;28;20028;-85
2022/10/22 01:51:13;;;;;;;1999.90;999.90;;;15.10;99.90;;;;;;5020233;28;20033;-85
2022/10/22 01:54:04;;;;;;;1999.90;999.90;;;15.10;99.90;;;;;;5013775;28;20040;-85
2022/10/22 01:56:49;;;;;;;1999.90;999.90;;;15.10;99.90;;;;;;5020602;28;20025;-85
2022/10/22 01:59:33;;;;;;;1999.90;999.90;;;15.10;99.90;;;;;;5015395;28;20440;-85
2022/10/22 02:02:27;;;;;;;1999.90;999.90;;;15.10;99.90;;;;;;5033326;28;20052;-85
2022/10/22 02:05:44;;;;;;;1999.90;999.90;;;15.10;99.90;;;;;;5025830;28;20053;-85
2022/10/22 02:08:20;;;;;;;1999.90;999.90;;;15.10;99.90;;;;;;4999734;28;20041;-85
2022/10/22 02:10:48;;;;;;;1999.90;999.90;;;15.10;99.90;;;;;;5032968;28;20038;-85
2022/10/22 02:13:47;;;;;;;1999.90;999.90;;;15.10;99.90;;;;;;5033021;28;20109;-85
2022/10/22 02:16:23;;;;;;;1999.90;999.90;;;15.10;99.90;;;;;;5022143;28;20043;-85
2022/10/22 02:18:52;;;;;;;1999.90;999.90;;;15.10;99.90;;;;;;5032921;28;20017;-85
2022/10/22 02:21:18;;;;;;;1999.90;999.90;;;15.10;99.90;;;;;;5032475;28;20087;-85
2022/10/22 02:23:45;;;;;;;1999.90;999.90;;;15.10;99.90;;;;;;5032751;28;20029;-85
2022/10/22 02:26:20;;;;;;;1999.90;999.90;;;15.10;99.90;;;;;;5032825;28;20025;-85
2022/10/22 02:29:12;;;;;;;1999.90;999.90;;;15.10;99.90;;;;;;5014271;28;20033;-85
2022/10/22 02:31:41;;;;;;;1999.90;999.90;;;15.10;99.90;;;;;;5014309;28;20040;-85
2022/10/22 02:34:10;;;;;;;1999.90;999.90;;;15.10;99.90;;;;;;5032506;28;20022;-85
2022/10/22 02:36:39;;;;;;;1999.90;999.90;;;15.10;99.90;;;;;;5014360;28;20025;-85
2022/10/22 02:39:06;;;;;;;1999.90;999.90;;;15.10;99.90;;;;;;5014526;28;20025;-85
2022/10/22 02:41:32;;;;;;;1999.90;999.90;;;15.00;99.90;;;;;;5014227;28;20033;-85
2022/10/22 02:43:57;;;;;;;1999.90;999.90;;;15.00;99.90;;;;;;5032361;28;20026;-85
2022/10/22 02:46:24;;;;;;;1999.90;999.90;;;15.10;99.90;;;;;;5032435;28;20084;-85
2022/10/22 02:48:50;;;;;;;1999.90;999.90;;;15.10;99.90;;;;;;5032426;28;20009;-85
2022/10/22 02:51:15;;;;;;;1999.90;999.90;;;15.10;99.90;;;;;;5017347;28;20507;-85
2022/10/22 02:53:41;;;;;;;1999.90;999.90;;;15.10;99.90;;;;;;5016417;28;20022;-85
2022/10/22 02:56:08;;;;;;;1999.90;999.90;;;15.10;99.90;;;;;;5014341;28;20033;-85
2022/10/22 02:58:33;;;;;;;1999.90;999.90;;;15.10;99.90;;;;;;5030990;28;20032;-85
2022/10/22 03:00:59;;;;;;;1999.90;999.90;;;15.10;99.90;;;;;;5032110;28;20029;-85
2022/10/22 03:03:25;;;;;;;1999.90;999.90;;;15.10;99.90;;;;;;5032161;28;20038;-85
2022/10/22 03:05:50;;;;;;;1999.90;999.90;;;15.10;99.90;;;;;;5031795;28;20041;-85
2022/10/22 03:08:16;;;;;;;1999.90;999.90;;;15.10;99.90;;;;;;5031783;28;20029;-85
2022/10/22 03:10:42;;;;;;;1999.90;999.90;;;15.10;99.90;;;;;;5013470;28;20036;-85
2022/10/22 03:13:08;;;;;;;1999.90;999.90;;;15.10;99.90;;;;;;5031228;28;20108;-85
2022/10/22 03:15:34;;;;;;;1999.90;999.90;;;15.20;99.90;;;;;;5031374;28;20035;-85
2022/10/22 03:17:59;;;;;;;1999.90;999.90;;;15.20;99.90;;;;;;5031554;28;20531;-85
2022/10/22 03:20:25;;;;;;;1999.90;999.90;;;15.20;99.90;;;;;;5013273;28;20052;-85
2022/10/22 03:22:51;;;;;;;1999.90;999.90;;;15.20;99.90;;;;;;5031661;28;20033;-85
2022/10/22 03:25:21;;;;;;;1999.90;999.90;;;15.10;99.90;;;;;;5013675;28;20140;-85
2022/10/22 03:27:48;;;;;;;1999.90;999.90;;;15.10;99.90;;;;;;5031766;28;20403;-85
2022/10/22 03:30:14;;;;;;;1999.90;999.90;;;15.20;99.90;;;;;;5031212;28;20030;-85
2022/10/22 03:32:40;;;;;;;1999.90;999.90;;;15.20;99.90;;;;;;5031592;28;20511;-85
2022/10/22 03:35:06;;;;;;;1999.90;999.90;;;15.20;99.90;;;;;;5049033;28;20414;-85
2022/10/22 03:37:32;;;;;;;1999.90;999.90;;;15.10;99.90;;;;;;5051314;28;20029;-85
2022/10/22 03:39:58;;;;;;;1999.90;999.90;;;15.10;99.90;;;;;;5040468;28;20547;-85
2022/10/22 03:42:24;;;;;;;1999.90;999.90;;;15.10;99.90;;;;;;5031385;28;20030;-85
2022/10/22 03:44:50;;;;;;;1999.90;999.90;;;15.10;99.90;;;;;;5031420;28;20025;-85
2022/10/22 03:47:16;;;;;;;1999.90;999.90;;;15.00;99.90;;;;;;5013815;28;20037;-85
2022/10/22 03:49:41;;;;;;;1999.90;999.90;;;15.00;99.90;;;;;;5029572;28;20032;-85
2022/10/22 03:52:09;;;;;;;1999.90;999.90;;;14.90;99.90;;;;;;5011441;28;20406;-85
2022/10/22 03:54:36;;;;;;;1999.90;999.90;;;14.90;99.90;;;;;;5027767;28;20037;-85
2022/10/22 03:57:03;;;;;;;1999.90;999.90;;;14.90;99.90;;;;;;5013353;28;20029;-85
2022/10/22 03:59:34;;;;;;;1999.90;999.90;;;14.90;99.90;;;;;;5043340;28;20032;-85
2022/10/22 04:01:59;;;;;;;1999.90;999.90;;;14.90;99.90;;;;;;5033461;28;20032;-85
2022/10/22 04:04:25;;;;;;;1999.90;999.90;;;14.80;99.90;;;;;;5051461;28;20037;-85
2022/10/22 04:06:51;;;;;;;1999.90;999.90;;;14.70;99.90;;;;;;5055118;28;20029;-85
2022/10/22 04:09:16;;;;;;;1999.90;999.90;;;14.60;99.90;;;;;;5054929;28;20491;-85
2022/10/22 04:11:42;;;;;;;1999.90;999.90;;;14.50;99.90;;;;;;5037101;28;20028;-85
2022/10/22 04:14:07;;;;;;;1999.90;999.90;;;14.40;99.90;;;;;;5042458;28;20025;-85
2022/10/22 04:16:33;;;;;;;1999.90;999.90;;;14.30;99.90;;;;;;5034905;28;20031;-85
2022/10/22 04:18:59;;;;;;;1999.90;999.90;;;14.30;99.90;;;;;;5034354;28;20500;-85
2022/10/22 04:21:24;;;;;;;1999.90;999.90;;;14.20;99.90;;;;;;5034732;28;20041;-85
2022/10/22 04:23:51;;;;;;;1999.90;999.90;;;14.20;99.90;;;;;;5017247;28;20447;-85
2022/10/22 04:26:18;;;;;;;1999.90;999.90;;;14.20;99.90;;;;;;5017065;28;20026;-85
2022/10/22 04:28:44;;;;;;;1999.90;999.90;;;14.20;99.90;;;;;;5034892;28;20029;-85
2022/10/22 04:31:16;;;;;;;1999.90;999.90;;;14.10;99.90;;;;;;5034790;28;20080;-85
2022/10/22 04:33:41;;;;;;;1999.90;999.90;;;14.10;99.90;;;;;;5034899;28;20118;-85
2022/10/22 04:36:08;;;;;;;1999.90;999.90;;;14.20;99.90;;;;;;5034652;28;20407;-85
2022/10/22 04:38:33;;;;;;;1999.90;999.90;;;14.20;99.90;;;;;;5034455;28;20040;-86
2022/10/22 04:41:11;;;;;;;1999.90;999.90;;;14.10;99.90;;;;;;5034169;28;20037;-85
2022/10/22 04:43:37;;;;;;;1999.90;999.90;;;14.10;99.90;;;;;;5034808;28;20033;-85
2022/10/22 04:46:03;;;;;;;1999.90;999.90;;;14.10;99.90;;;;;;5033487;28;20400;-85
2022/10/22 04:48:29;;;;;;;1999.90;999.90;;;14.10;99.90;;;;;;5033446;28;20068;-85
2022/10/22 04:50:57;;;;;;;1999.90;999.90;;;14.00;99.90;;;;;;5022211;28;20382;-85
2022/10/22 04:53:23;;;;;;;1999.90;999.90;;;14.00;99.90;;;;;;5033275;28;20041;-85
2022/10/22 04:55:49;;;;;;;1999.90;999.90;;;14.00;99.90;;;;;;5056642;28;20036;-84
2022/10/22 04:58:14;;;;;;;1999.90;999.90;;;13.90;99.90;;;;;;5056815;28;20031;-85
2022/10/22 05:00:40;;;;;;;1999.90;999.90;;;13.90;99.90;;;;;;5055994;28;20039;-85
2022/10/22 05:03:06;;;;;;;1999.90;999.90;;;13.90;99.90;;;;;;5054906;28;20025;-85
2022/10/22 05:05:32;;;;;;;1999.90;999.90;;;13.90;99.90;;;;;;5037871;28;20109;-85
2022/10/22 05:07:57;;;;;;;1999.90;999.90;;;13.90;99.90;;;;;;5037953;28;20022;-85
2022/10/22 05:10:23;;;;;;;1999.90;999.90;;;13.90;99.90;;;;;;5043346;28;20113;-85
2022/10/22 05:12:48;;;;;;;1999.90;999.90;;;13.90;99.90;;;;;;5037693;28;20037;-85
2022/10/22 05:15:14;;;;;;;1999.90;999.90;;;13.90;99.90;;;;;;5053960;28;20068;-85
2022/10/22 05:17:40;;;;;;;1999.90;999.90;;;13.80;99.90;;;;;;5039038;28;20083;-85
2022/10/22 05:20:06;;;;;;;1999.90;999.90;;;13.80;99.90;;;;;;5034294;28;20080;-85
2022/10/22 05:22:33;;;;;;;1999.90;999.90;;;13.80;99.90;;;;;;5033373;28;20033;-85
2022/10/22 05:24:59;;;;;;;1999.90;999.90;;;13.70;99.90;;;;;;5033863;28;20120;-85
2022/10/22 05:27:25;;;;;;;1999.90;999.90;;;13.70;99.90;;;;;;5033699;28;20532;-85
2022/10/22 05:29:51;;;;;;;1999.90;999.90;;;13.70;99.90;;;;;;5033826;28;20032;-85
2022/10/22 05:32:17;;;;;;;1999.90;999.90;;;13.70;99.90;;;;;;5034314;28;20030;-84
2022/10/22 05:34:42;;;;;;;1999.90;999.90;;;13.70;99.90;;;;;;5053567;28;20040;-85
2022/10/22 05:37:08;;;;;;;1999.90;999.90;;;13.60;99.90;;;;;;5050388;28;20033;-85
2022/10/22 05:39:35;;;;;;;1999.90;999.90;;;13.70;99.90;;;;;;5045915;28;20400;-85
2022/10/22 05:42:02;;;;;;;1999.90;999.90;;;13.70;99.90;;;;;;5033723;28;20112;-85
2022/10/22 05:44:27;;;;;;;1999.90;999.90;;;13.70;99.90;;;;;;5033384;28;20030;-85
2022/10/22 05:46:53;;;;;;;1999.90;999.90;;;13.60;99.90;;;;;;5014529;28;20032;-85
2022/10/22 05:49:19;;;;;;;1999.90;999.90;;;13.60;99.90;;;;;;5033754;28;20503;-85
2022/10/22 05:51:45;;;;;;;1999.90;999.90;;;13.60;99.90;;;;;;5021256;28;20132;-85
2022/10/22 05:54:17;;;;;;;1999.90;999.90;;;13.60;99.90;;;;;;5048137;28;20040;-85
2022/10/22 05:56:43;;;;;;;1999.90;999.90;;;13.60;99.90;;;;;;5052883;28;20013;-86
2022/10/22 05:59:10;;;;;;;1999.90;999.90;;;13.60;99.90;;;;;;5053257;28;20033;-85
2022/10/22 06:01:37;;;;;;;1999.90;999.90;;;13.60;99.90;;;;;;5053178;28;20114;-85
2022/10/22 06:04:06;;;;;;;1999.90;999.90;;;13.60;99.90;;;;;;5053202;28;20025;-85
2022/10/22 06:06:38;;;;;;;1999.90;999.90;;;13.60;99.90;;;;;;5052793;28;20075;-85
2022/10/22 06:09:23;;;;;;;1999.90;999.90;;;13.60;99.90;;;;;;5052974;28;20036;-85
2022/10/22 06:11:49;;;;;;;1999.90;999.90;;;13.50;99.90;;;;;;5052894;28;20496;-85
2022/10/22 06:14:16;;;;;;;1999.90;999.90;;;13.50;99.90;;;;;;5034009;28;20021;-85
2022/10/22 06:16:42;;;;;;;1999.90;999.90;;;13.40;99.90;;;;;;5032698;28;20508;-85
2022/10/22 06:19:10;;;;;;;1999.90;999.90;;;13.40;99.90;;;;;;5033030;28;20028;-85
2022/10/22 06:21:36;;;;;;;1999.90;999.90;;;13.40;99.90;;;;;;5014779;28;20072;-85
2022/10/22 06:24:02;;;;;;;1999.90;999.90;;;13.30;99.90;;;;;;5032518;28;20049;-85
2022/10/22 06:26:28;;;;;;;1999.90;999.90;;;13.30;99.90;;;;;;5014757;28;20064;-85
2022/10/22 06:28:55;;;;;;;1999.90;999.90;;;13.30;99.90;;;;;;5014446;28;20113;-85
2022/10/22 06:31:22;;;;;;;1999.90;999.90;;;13.30;99.90;;;;;;5032565;28;20397;-85
2022/10/22 06:33:47;;;;;;;1999.90;999.90;;;13.40;99.90;;;;;;5031974;28;20029;-85
2022/10/22 06:36:15;;;;;;;1999.90;999.90;;;13.40;99.90;;;;;;5032232;28;20026;-85
2022/10/22 06:38:42;;;;;;;1999.90;999.90;;;13.40;99.90;;;;;;5031881;28;20057;-85
2022/10/22 06:41:10;;;;;;;1999.90;999.90;;;13.40;99.90;;;;;;5041642;28;20041;-85
2022/10/22 06:43:36;;;;;;;1999.90;999.90;;;13.40;99.90;;;;;;5052405;28;20068;-85
2022/10/22 06:46:03;;;;;;;1999.90;999.90;;;13.40;99.90;;;;;;5052122;28;20057;-85
2022/10/22 06:48:29;;;;;;;1999.90;999.90;;;13.30;99.90;;;;;;5033281;28;20029;-85
2022/10/22 06:50:55;;;;;;;1999.90;999.90;;;13.30;99.90;;;;;;5023611;28;20018;-85
2022/10/22 06:53:21;;;;;;;1999.90;999.90;;;13.30;99.90;;;;;;5012432;28;20042;-85
2022/10/22 06:55:46;;;;;;;1999.90;999.90;;;13.30;99.90;;;;;;5013660;28;20021;-85
2022/10/22 06:58:12;;;;;;;1999.90;999.90;;;13.30;99.90;;;;;;5032048;28;20036;-85
2022/10/22 07:00:37;;;;;;;1999.90;999.90;;;13.30;99.90;;;;;;5031954;28;20112;-85
2022/10/22 07:03:03;;;;;;;1999.90;999.90;;;13.30;99.90;;;;;;5032171;28;20060;-85
2022/10/22 07:05:29;;;;;;;1999.90;999.90;;;13.30;99.90;;;;;;5014141;28;20037;-85
2022/10/22 07:07:54;;;;;;;1999.90;999.90;;;13.30;99.90;;;;;;5032223;28;20453;-85
2022/10/22 07:10:20;;;;;;;1999.90;999.90;;;13.40;99.90;;;;;;5014115;28;20140;-85
2022/10/22 07:12:46;;;;;;;1999.90;999.90;;;13.50;99.90;;;;;;5031152;28;20034;-85
2022/10/22 07:15:11;;;;;;;1999.90;999.90;;;13.50;99.90;;;;;;5032087;28;20033;-85
2022/10/22 07:17:37;;;;;;;1999.90;999.90;;;13.50;99.90;;;;;;5032076;28;20387;-85
2022/10/22 07:20:03;;;;;;;1999.90;999.90;;;13.60;99.90;;;;;;5031630;28;20472;-85
2022/10/22 07:22:28;;;;;;;1999.90;999.90;;;13.60;99.90;;;;;;5030355;28;20033;-85
2022/10/22 07:24:54;;;;;;;1999.90;999.90;;;13.60;99.90;;;;;;5031471;28;20112;-85
2022/10/22 07:27:20;;;;;;;1999.90;999.90;;;13.70;99.90;;;;;;5031747;28;20501;-85
2022/10/22 07:29:45;;;;;;;1999.90;999.90;;;13.80;99.90;;;;;;5031845;28;20087;-85
2022/10/22 07:32:11;;;;;;;1999.90;999.90;;;13.90;99.90;;;;;;5037324;28;20471;-85
2022/10/22 07:34:37;;;;;;;1999.90;999.90;;;13.90;99.90;;;;;;5051417;28;20032;-85
2022/10/22 07:37:03;;;;;;;1999.90;999.90;;;14.00;99.90;;;;;;5033508;28;20029;-85
2022/10/22 07:39:28;;;;;;;1999.90;999.90;;;14.20;99.90;;;;;;5025603;28;20045;-84
2022/10/22 07:41:54;;;;;;;1999.90;999.90;;;14.30;99.90;;;;;;5031677;28;20076;-85
2022/10/22 07:44:19;;;;;;;1999.90;999.90;;;14.50;99.90;;;;;;5031561;28;20388;-85
2022/10/22 07:46:45;;;;;;;1999.90;999.90;;;15.00;99.90;;;;;;5013371;28;20026;-85
2022/10/22 07:49:11;;;;;;;1999.90;999.90;;;15.50;99.90;;;;;;5030666;28;20080;-86
2022/10/22 07:51:36;;;;;;;1999.90;999.90;;;15.90;99.90;;;;;;5021595;28;20053;-85
2022/10/22 07:54:03;;;;;;;1999.90;999.90;;;16.00;99.90;;;;;;5031508;28;20022;-85
2022/10/22 07:56:28;;;;;;;1999.90;999.90;;;16.00;99.90;;;;;;5031193;28;20079;-85
2022/10/22 07:58:54;;;;;;;1999.90;999.90;;;15.90;99.90;;;;;;5031238;28;20025;-85
2022/10/22 08:01:19;;;;;;;1999.90;999.90;;;15.90;99.90;;;;;;5031569;28;20057;-85
2022/10/22 08:03:45;;;;;;;1999.90;999.90;;;15.80;99.90;;;;;;5031640;28;20025;-85
2022/10/22 08:06:14;;;;;;;1999.90;999.90;;;15.60;99.90;;;;;;5013360;28;20036;-85
2022/10/22 08:08:42;;;;;;;1999.90;999.90;;;15.50;99.90;;;;;;5013279;28;20374;-85
2022/10/22 08:11:09;;;;;;;1999.90;999.90;;;15.50;99.90;;;;;;5031863;28;20021;-85
2022/10/22 08:13:35;;;;;;;1999.90;999.90;;;15.60;99.90;;;;;;5048185;28;20071;-85
2022/10/22 08:16:01;;;;;;;1999.90;999.90;;;15.50;99.90;;;;;;5032187;28;20440;-85
2022/10/22 08:18:27;;;;;;;1999.90;999.90;;;15.60;99.90;;;;;;5031370;28;20108;-85
2022/10/22 08:20:53;;;;;;;1999.90;999.90;;;15.70;99.90;;;;;;5030648;28;20025;-85
2022/10/22 08:23:19;;;;;;;1999.90;999.90;;;15.90;99.90;;;;;;5031369;28;20568;-85
2022/10/22 08:25:45;;;;;;;1999.90;999.90;;;16.20;99.90;;;;;;5013325;28;20496;-85
2022/10/22 08:28:10;;;;;;;1999.90;999.90;;;16.30;99.90;;;;;;5031157;28;20026;-85
2022/10/22 08:30:37;;;;;;;1999.90;999.90;;;16.50;99.90;;;;;;5013525;28;20030;-85
2022/10/22 08:33:04;;;;;;;1999.90;999.90;;;16.90;99.90;;;;;;5022864;28;20583;-85
2022/10/22 08:35:30;;;;;;;1999.90;999.90;;;17.00;99.90;;;;;;5031587;28;20037;-85
2022/10/22 08:37:55;;;;;;;1999.90;999.90;;;17.20;99.90;;;;;;5031690;28;20028;-85
2022/10/22 08:40:39;;;;;;;1999.90;999.90;;;17.20;99.90;;;;;;5034950;28;20025;-85
2022/10/22 08:43:31;;;;;;;1999.90;999.90;;;17.30;99.90;;;;;;5031313;28;20030;-85
2022/10/22 08:46:20;;;;;;;1999.90;999.90;;;17.30;99.90;;;;;;5026904;28;20047;-85
2022/10/22 08:48:49;;;;;;;1999.90;999.90;;;17.40;99.90;;;;;;5030732;28;20467;-85
2022/10/22 08:51:22;;;;;;;1999.90;999.90;;;17.70;99.90;;;;;;5027205;28;20528;-84
2022/10/22 08:54:12;;;;;;;1999.90;999.90;;;17.80;99.90;;;;;;5061506;28;20024;-85
2022/10/22 08:56:46;;;;;;;1999.90;999.90;;;17.80;99.90;;;;;;5060860;28;20236;-85
2022/10/22 08:59:52;;;;;;;1999.90;999.90;;;17.90;99.90;;;;;;5064701;28;20071;-85
2022/10/22 09:02:32;;;;;;;1999.90;999.90;;;18.20;99.90;;;;;;5052349;28;20063;-85
2022/10/22 09:05:30;;;;;;;1999.90;999.90;;;19.00;99.90;;;;;;5036259;28;20083;-85
2022/10/22 09:07:56;;;;;;;1999.90;999.90;;;19.70;99.90;;;;;;5020187;28;20068;-85
2022/10/22 09:10:27;;;;;;;1999.90;999.90;;;20.00;99.90;;;;;;5054001;28;20096;-85
2022/10/22 09:12:52;;;;;;;1999.90;999.90;;;19.80;99.90;;;;;;5037312;28;20022;-85
2022/10/22 09:15:18;;;;;;;1999.90;999.90;;;19.30;99.90;;;;;;5034272;28;20035;-85
2022/10/22 09:17:58;;;;;;;1999.90;999.90;;;18.70;99.90;;;;;;5034143;28;20060;-85
2022/10/22 09:20:53;;;;;;;1999.90;999.90;;;18.40;99.90;;;;;;5033635;28;20028;-85
2022/10/22 09:23:39;;;;;;;1999.90;999.90;;;18.30;99.90;;;;;;5033969;28;20041;-85
2022/10/22 09:26:14;;;;;;;1999.90;999.90;;;18.40;99.90;;;;;;4976411;28;20099;-85
2022/10/22 09:28:39;;;;;;;1999.90;999.90;;;18.50;99.90;;;;;;5015949;28;20029;-85
2022/10/22 09:31:11;;;;;;;1999.90;999.90;;;18.60;99.90;;;;;;5033799;28;20017;-85
2022/10/22 09:33:37;;;;;;;1999.90;999.90;;;18.80;99.90;;;;;;5033839;28;20355;-85
2022/10/22 09:36:06;;;;;;;1999.90;999.90;;;18.90;99.90;;;;;;5033422;28;20029;-85
2022/10/22 09:38:39;;;;;;;1999.90;999.90;;;19.10;99.90;;;;;;5033071;28;20029;-85
2022/10/22 09:41:05;;;;;;;1999.90;999.90;;;19.40;99.90;;;;;;5009932;28;20034;-85
2022/10/22 09:43:32;;;;;;;1999.90;999.90;;;19.40;99.90;;;;;;5033791;28;20408;-85
2022/10/22 09:46:00;;;;;;;1999.90;999.90;;;19.30;99.90;;;;;;5033557;28;20030;-85
2022/10/22 09:48:38;;;;;;;1999.90;999.90;;;19.20;99.90;;;;;;5033377;28;20042;-85
2022/10/22 09:51:06;;;;;;;1999.90;999.90;;;19.20;99.90;;;;;;5026256;28;20101;-85
2022/10/22 09:53:55;;;;;;;1999.90;999.90;;;19.10;99.90;;;;;;5013558;28;20151;-85
2022/10/22 09:56:21;;;;;;;1999.90;999.90;;;19.20;99.90;;;;;;4995855;28;20040;-85
2022/10/22 09:58:50;;;;;;;1999.90;999.90;;;19.10;99.90;;;;;;5033087;28;20104;-85
2022/10/22 10:01:28;;;;;;;1999.90;999.90;;;19.20;99.90;;;;;;5033209;28;20076;-85
2022/10/22 10:04:03;;;;;;;1999.90;999.90;;;19.10;99.90;;;;;;5032555;28;20542;-85
2022/10/22 10:06:32;;;;;;;1999.90;999.90;;;19.00;99.90;;;;;;5030117;28;20040;-85
2022/10/22 10:09:01;;;;;;;1999.90;999.90;;;19.00;99.90;;;;;;5032824;28;20045;-85
2022/10/22 10:11:47;;;;;;;1999.90;999.90;;;19.00;99.90;;;;;;5031369;28;20034;-85
2022/10/22 10:14:54;;;;;;;1999.90;999.90;;;19.10;99.90;;;;;;5033163;28;20021;-85
2022/10/22 10:17:30;;;;;;;1999.90;999.90;;;19.20;99.90;;;;;;5013118;28;20041;-84
2022/10/22 10:20:17;;;;;;;1999.90;999.90;;;19.30;99.90;;;;;;5017926;28;20033;-85
2022/10/22 10:23:12;;;;;;;1999.90;999.90;;;19.20;99.90;;;;;;5031921;28;20432;-84
2022/10/22 10:25:52;;;;;;;1999.90;999.90;;;19.30;99.90;;;;;;5032749;28;20397;-85
2022/10/22 10:28:38;;;;;;;1999.90;999.90;;;19.40;99.90;;;;;;5032835;28;20026;-85
2022/10/22 10:31:12;;;;;;;1999.90;999.90;;;19.60;99.90;;;;;;5015040;28;20030;-85
2022/10/22 10:33:55;;;;;;;1999.90;999.90;;;19.70;99.90;;;;;;5032714;28;20038;-84
2022/10/22 10:36:38;;;;;;;1999.90;999.90;;;19.80;99.90;;;;;;5014595;28;20041;-85
2022/10/22 10:39:11;;;;;;;1999.90;999.90;;;19.90;99.90;;;;;;5032253;28;20037;-85
2022/10/22 10:42:03;;;;;;;1999.90;999.90;;;19.80;99.90;;;;;;5028465;28;20034;-85
2022/10/22 10:44:44;;;;;;;1999.90;999.90;;;19.90;99.90;;;;;;5035788;28;20075;-85
2022/10/22 10:47:28;;;;;;;1999.90;999.90;;;19.90;99.90;;;;;;5036853;28;20043;-85
2022/10/22 10:50:33;;;;;;;1999.90;999.90;;;19.90;99.90;;;;;;5032526;28;20036;-85
2022/10/22 10:53:19;;;;;;;1999.90;999.90;;;20.00;99.90;;;;;;4931930;29;20128;-85
2022/10/22 10:56:16;;;;;;;1999.90;999.90;;;20.10;99.90;;;;;;4933557;29;20139;-86
2022/10/22 10:58:50;;;;;;;1999.90;999.90;;;20.30;99.90;;;;;;4951777;29;20535;-85
2022/10/22 11:01:31;;;;;;;1999.90;999.90;;;20.40;99.90;;;;;;4935731;29;20043;-86
2022/10/22 11:04:12;;;;;;;1999.90;999.90;;;20.40;99.90;;;;;;4948372;28;20093;-85
2022/10/22 11:06:40;;;;;;;1999.90;999.90;;;20.60;99.90;;;;;;4954198;28;20057;-85
2022/10/22 11:09:31;;;;;;;1999.90;999.90;;;20.70;99.90;;;;;;4971202;28;20049;-85
2022/10/22 11:12:04;;;;;;;1999.90;999.90;;;20.70;99.90;;;;;;4957432;28;20062;-85
2022/10/22 11:14:55;;;;;;;1999.90;999.90;;;20.80;99.90;;;;;;4954760;28;20035;-86
2022/10/22 11:17:23;;;;;;;1999.90;999.90;;;20.80;99.90;;;;;;4925104;29;20621;-85
2022/10/22 11:20:19;;;;;;;1999.90;999.90;;;21.10;99.90;;;;;;4951361;29;20031;-86
2022/10/22 11:22:49;;;;;;;1999.90;999.90;;;21.20;99.90;;;;;;4936007;29;20028;-85
2022/10/22 11:25:21;;;;;;;1999.90;999.90;;;21.20;99.90;;;;;;4951458;29;20093;-86
2022/10/22 11:28:00;;;;;;;1999.90;999.90;;;21.30;99.90;;;;;;5018607;28;20048;-85
2022/10/22 11:30:32;;;;;;;1999.90;999.90;;;21.50;99.90;;;;;;5031641;28;20040;-85
2022/10/22 11:33:01;;;;;;;1999.90;999.90;;;21.60;99.90;;;;;;5031712;28;20034;-86
2022/10/22 11:35:31;;;;;;;1999.90;999.90;;;21.60;99.90;;;;;;5031548;28;20036;-85
2022/10/22 11:37:58;;;;;;;1999.90;999.90;;;21.60;99.90;;;;;;5013626;28;20098;-86
2022/10/22 11:40:38;;;;;;;1999.90;999.90;;;21.50;99.90;;;;;;5013600;28;20388;-86
2022/10/22 11:43:09;;;;;;;1999.90;999.90;;;21.50;99.90;;;;;;5031709;28;20037;-86
2022/10/22 11:45:38;;;;;;;1999.90;999.90;;;21.60;99.90;;;;;;5031638;28;20036;-86
2022/10/22 11:48:09;;;;;;;1999.90;999.90;;;21.50;99.90;;;;;;5031570;28;20025;-86
2022/10/22 11:50:47;;;;;;;1999.90;999.90;;;21.30;99.90;;;;;;5010608;28;20068;-85
2022/10/22 11:53:12;;;;;;;1999.90;999.90;;;21.30;99.90;;;;;;5010824;28;20048;-85
2022/10/22 11:55:48;;;;;;;1999.90;999.90;;;21.30;99.90;;;;;;5011902;28;20109;-86
2022/10/22 11:58:33;;;;;;;1999.90;999.90;;;21.30;99.90;;;;;;5011771;28;20026;-86
2022/10/22 12:01:01;;;;;;;1999.90;999.90;;;21.30;99.90;;;;;;5011879;28;20476;-85
2022/10/22 12:03:42;;;;;;;1999.90;999.90;;;21.40;99.90;;;;;;5024366;28;20025;-86
2022/10/22 12:06:11;;;;;;;1999.90;999.90;;;21.30;99.90;;;;;;5031207;28;20096;-86
2022/10/22 12:08:45;;;;;;;1999.90;999.90;;;21.40;99.90;;;;;;5031093;28;20030;-85
2022/10/22 12:11:10;;;;;;;1999.90;999.90;;;21.40;99.90;;;;;;5031293;28;20036;-86
2022/10/22 12:13:57;;;;;;;1999.90;999.90;;;21.30;99.90;;;;;;5013575;28;20393;-86
2022/10/22 12:16:25;;;;;;;1999.90;999.90;;;21.40;99.90;;;;;;5031408;28;20032;-86